Time;durP1;ratioP1;P1;durP2;ratioP2;P2;SDS_P1;SDS_P2;PMS_P1;PMS_P2;Temp;Humidity;BMP_temperature;BMP_pressure;BME280_temperature;BME280_humidity;BME280_pressure;Samples;Min_cycle;Max_cycle;Signal;HPM_P1;HPM_P2
2021/06/23 00:00:56;;;;;;;25.63;20.70;;;16.40;99.90;;;;;;5061326;28;20096;-73
2021/06/23 00:03:23;;;;;;;26.05;19.92;;;16.40;99.90;;;;;;5069776;28;20125;-73
2021/06/23 00:05:48;;;;;;;24.73;20.70;;;16.50;99.90;;;;;;5056447;28;20009;-72
2021/06/23 00:08:14;;;;;;;23.83;19.02;;;16.50;99.90;;;;;;5071633;28;20032;-73
2021/06/23 00:10:40;;;;;;;24.67;20.25;;;16.50;99.90;;;;;;5058669;28;20028;-73
2021/06/23 00:13:07;;;;;;;29.77;23.20;;;16.60;99.90;;;;;;5066453;28;20443;-73
2021/06/23 00:15:33;;;;;;;30.77;24.80;;;16.70;99.90;;;;;;5058518;28;20045;-74
2021/06/23 00:17:59;;;;;;;34.55;26.23;;;16.60;99.90;;;;;;5066292;28;20063;-73
2021/06/23 00:20:25;;;;;;;35.25;26.65;;;16.40;99.90;;;;;;5071227;28;20032;-73
2021/06/23 00:22:51;;;;;;;33.15;26.88;;;16.70;99.90;;;;;;5066133;28;20020;-73
2021/06/23 00:25:18;;;;;;;32.33;25.30;;;16.40;99.90;;;;;;5060652;28;20411;-72
2021/06/23 00:27:44;;;;;;;33.60;25.30;;;16.40;99.90;;;;;;5060140;28;20020;-73
2021/06/23 00:30:11;;;;;;;34.60;25.08;;;16.50;99.90;;;;;;5062167;28;20037;-72
2021/06/23 00:32:41;;;;;;;30.10;24.73;;;16.30;99.90;;;;;;5057713;28;20029;-73
2021/06/23 00:35:08;;;;;;;28.77;20.98;;;16.40;99.90;;;;;;5063480;28;20076;-72
2021/06/23 00:37:33;;;;;;;266.25;39.40;;;16.40;99.90;;;;;;5070480;28;20035;-72
2021/06/23 00:39:59;;;;;;;28.20;22.92;;;16.40;99.90;;;;;;5052796;28;20645;-73
2021/06/23 00:42:24;;;;;;;25.35;15.70;;;16.20;99.90;;;;;;5069358;28;20389;-73
2021/06/23 00:44:50;;;;;;;371.13;57.70;;;16.20;99.90;;;;;;5065440;28;20462;-73
2021/06/23 00:47:16;;;;;;;254.77;133.20;;;16.20;99.90;;;;;;5054005;28;20068;-73
2021/06/23 00:49:42;;;;;;;418.60;374.92;;;16.30;99.90;;;;;;5063907;28;20482;-73
2021/06/23 00:52:09;;;;;;;26.50;16.30;;;16.20;99.90;;;;;;5053281;28;20028;-73
2021/06/23 00:54:34;;;;;;;28.77;22.90;;;16.20;99.90;;;;;;5061836;28;20021;-73
2021/06/23 00:57:04;;;;;;;22.10;14.02;;;16.40;99.90;;;;;;5053298;28;20025;-73
2021/06/23 00:59:31;;;;;;;25.33;20.33;;;16.40;99.90;;;;;;5058085;28;20025;-73
2021/06/23 01:01:59;;;;;;;28.17;22.90;;;16.50;99.90;;;;;;5052349;28;20017;-73
2021/06/23 01:04:24;;;;;;;29.65;23.05;;;16.60;99.90;;;;;;5054350;28;20430;-73
2021/06/23 01:06:51;;;;;;;31.00;25.38;;;16.80;99.90;;;;;;5057975;28;20032;-73
2021/06/23 01:09:16;;;;;;;36.03;25.27;;;16.70;99.90;;;;;;5061732;28;20376;-73
2021/06/23 01:12:14;;;;;;;58.33;41.15;;;16.80;99.90;;;;;;5068790;28;20027;-74
2021/06/23 01:14:42;;;;;;;34.20;24.95;;;16.90;99.90;;;;;;5064102;28;20027;-73
2021/06/23 01:17:09;;;;;;;54.80;28.13;;;16.60;99.90;;;;;;5059117;28;20036;-74
2021/06/23 01:19:40;;;;;;;29.20;22.02;;;16.50;99.90;;;;;;5059990;28;20021;-74
2021/06/23 01:22:06;;;;;;;31.30;24.23;;;16.60;99.90;;;;;;5052396;28;20104;-74
2021/06/23 01:24:32;;;;;;;29.10;19.90;;;16.60;99.90;;;;;;5060219;28;20075;-74
2021/06/23 01:26:58;;;;;;;24.42;16.25;;;16.40;99.90;;;;;;5049117;28;20025;-74
2021/06/23 01:29:23;;;;;;;26.92;17.80;;;16.40;99.90;;;;;;5066829;28;20046;-74
2021/06/23 01:31:49;;;;;;;32.22;23.20;;;16.30;99.90;;;;;;5045683;28;20024;-74
2021/06/23 01:34:18;;;;;;;23.25;11.77;;;16.20;99.90;;;;;;5065732;28;20044;-74
2021/06/23 01:36:44;;;;;;;23.58;11.40;;;16.50;99.90;;;;;;5061320;28;20021;-74
2021/06/23 01:39:09;;;;;;;27.77;13.20;;;16.40;99.90;;;;;;5052587;28;20577;-74
2021/06/23 01:41:35;;;;;;;24.40;12.10;;;16.50;99.90;;;;;;5061723;28;20479;-73
2021/06/23 01:44:03;;;;;;;24.48;10.65;;;16.30;99.90;;;;;;5052664;28;20051;-73
2021/06/23 01:46:29;;;;;;;32.72;21.00;;;16.30;99.90;;;;;;5059435;28;20136;-74
2021/06/23 01:48:55;;;;;;;21.70;16.10;;;16.20;99.90;;;;;;5051455;28;20053;-74
2021/06/23 01:51:21;;;;;;;25.05;14.25;;;16.10;99.90;;;;;;5054588;28;20120;-74
2021/06/23 01:53:47;;;;;;;31.63;23.33;;;16.20;99.90;;;;;;5051736;28;20597;-75
2021/06/23 01:56:12;;;;;;;31.80;22.75;;;16.10;99.90;;;;;;5053510;28;20033;-75
2021/06/23 01:58:40;;;;;;;26.35;15.82;;;16.10;99.90;;;;;;5069450;28;20036;-74
2021/06/23 02:01:08;;;;;;;28.85;19.23;;;16.30;99.90;;;;;;5060402;28;20025;-74
2021/06/23 02:04:00;;;;;;;23.25;14.98;;;16.20;99.90;;;;;;5068842;28;20113;-74
2021/06/23 02:07:05;;;;;;;24.45;17.52;;;16.10;99.90;;;;;;5053791;28;20033;-74
2021/06/23 02:09:49;;;;;;;9.52;6.95;;;16.40;99.90;;;;;;5052973;28;20446;-75
2021/06/23 02:12:49;;;;;;;17.15;8.20;;;16.30;99.90;;;;;;5057921;28;20067;-74
2021/06/23 02:15:15;;;;;;;20.40;14.82;;;15.90;99.90;;;;;;5050259;28;20020;-75
2021/06/23 02:17:44;;;;;;;27.10;18.83;;;15.80;99.90;;;;;;5055672;28;20087;-75
2021/06/23 02:20:10;;;;;;;35.13;22.55;;;15.80;99.90;;;;;;5048163;28;20025;-75
2021/06/23 02:22:35;;;;;;;24.90;15.27;;;15.80;99.90;;;;;;5054082;28;20479;-75
2021/06/23 02:25:08;;;;;;;39.38;26.02;;;15.70;99.90;;;;;;5056357;28;20170;-74
2021/06/23 02:27:34;;;;;;;38.40;26.75;;;16.00;99.90;;;;;;5054421;28;20021;-74
2021/06/23 02:30:00;;;;;;;34.22;18.23;;;16.10;99.90;;;;;;5039237;28;20033;-74
2021/06/23 02:32:29;;;;;;;31.13;18.60;;;15.80;99.90;;;;;;5053382;28;20100;-75
2021/06/23 02:34:58;;;;;;;39.35;17.52;;;15.80;99.90;;;;;;5058392;28;20056;-74
2021/06/23 02:37:25;;;;;;;31.27;18.77;;;16.00;99.90;;;;;;5053390;28;20553;-74
2021/06/23 02:39:54;;;;;;;30.67;17.30;;;16.00;99.90;;;;;;5060629;28;20028;-74
2021/06/23 02:42:20;;;;;;;41.78;31.00;;;16.10;99.90;;;;;;5062877;28;20044;-74
2021/06/23 02:44:46;;;;;;;38.85;29.88;;;16.20;99.90;;;;;;5056546;28;20027;-74
2021/06/23 02:47:16;;;;;;;42.53;32.78;;;16.10;99.90;;;;;;5051274;28;20116;-74
2021/06/23 02:49:41;;;;;;;42.70;31.90;;;16.10;99.90;;;;;;5059669;28;20164;-74
2021/06/23 02:52:09;;;;;;;44.20;33.90;;;16.10;99.90;;;;;;5062400;28;20033;-75
2021/06/23 02:54:35;;;;;;;56.22;43.85;;;16.20;99.90;;;;;;5058841;28;20029;-75
2021/06/23 02:57:00;;;;;;;19.00;10.35;;;16.10;99.90;;;;;;5064831;28;20063;-75
2021/06/23 02:59:27;;;;;;;65.95;16.42;;;16.00;99.90;;;;;;5061609;28;20045;-74
2021/06/23 03:01:53;;;;;;;27.17;14.43;;;15.80;99.90;;;;;;5065461;28;20071;-76
2021/06/23 03:04:18;;;;;;;29.30;18.55;;;15.70;99.90;;;;;;5050356;28;20025;-75
2021/06/23 03:06:44;;;;;;;20.77;11.90;;;15.90;99.90;;;;;;5043125;28;20025;-74
2021/06/23 03:09:09;;;;;;;1999.90;999.90;;;16.00;99.90;;;;;;5038201;28;20040;-74
2021/06/23 03:11:38;;;;;;;1999.90;999.90;;;16.10;99.90;;;;;;5040748;28;20029;-74
2021/06/23 03:14:04;;;;;;;1999.90;999.90;;;16.30;99.90;;;;;;5044249;28;20404;-76
2021/06/23 03:16:30;;;;;;;1999.90;999.90;;;16.40;99.90;;;;;;5041783;28;20021;-75
2021/06/23 03:18:55;;;;;;;1999.90;999.90;;;16.10;99.90;;;;;;5037113;28;20471;-75
2021/06/23 03:21:21;;;;;;;150.43;143.05;;;16.20;99.90;;;;;;5039287;28;20116;-74
2021/06/23 03:23:48;;;;;;;1999.90;999.90;;;16.00;99.90;;;;;;5036143;28;20098;-75
2021/06/23 03:26:14;;;;;;;19.15;11.82;;;16.00;99.90;;;;;;5039314;28;20025;-76
2021/06/23 03:28:40;;;;;;;14.80;9.23;;;15.80;99.90;;;;;;5044936;28;20552;-75
2021/06/23 03:31:05;;;;;;;20.98;11.30;;;15.90;99.90;;;;;;5042493;28;20035;-75
2021/06/23 03:33:31;;;;;;;20.10;11.00;;;16.10;99.90;;;;;;5037852;28;20033;-75
2021/06/23 03:35:57;;;;;;;20.88;11.68;;;16.10;99.90;;;;;;5044766;28;20037;-76
2021/06/23 03:38:22;;;;;;;25.73;12.20;;;16.20;99.90;;;;;;5038096;28;20401;-76
2021/06/23 03:40:48;;;;;;;25.20;13.25;;;16.30;99.90;;;;;;5045142;28;20412;-76
2021/06/23 03:43:14;;;;;;;24.25;15.15;;;16.30;99.90;;;;;;5051384;28;20028;-77
2021/06/23 03:45:39;;;;;;;24.60;15.52;;;16.20;99.90;;;;;;5044329;28;20356;-75
2021/06/23 03:48:05;;;;;;;26.65;15.75;;;16.10;99.90;;;;;;5049003;28;20090;-75
2021/06/23 03:50:32;;;;;;;27.50;17.70;;;16.00;99.90;;;;;;5047000;28;20036;-75
2021/06/23 03:52:58;;;;;;;28.98;18.13;;;16.20;99.90;;;;;;5035306;28;20025;-74
2021/06/23 03:55:27;;;;;;;29.00;18.23;;;16.20;99.90;;;;;;5047131;28;20127;-74
2021/06/23 03:57:54;;;;;;;128.38;37.70;;;16.20;99.90;;;;;;5055067;28;20025;-75
2021/06/23 04:00:22;;;;;;;23.65;11.93;;;16.30;99.90;;;;;;5054835;28;20136;-75
2021/06/23 04:02:48;;;;;;;25.98;13.40;;;16.50;99.90;;;;;;5048456;28;20104;-75
2021/06/23 04:05:14;;;;;;;22.65;12.98;;;16.40;99.90;;;;;;5048468;28;20109;-77
2021/06/23 04:07:40;;;;;;;35.30;15.82;;;16.30;99.90;;;;;;5041438;28;20508;-74
2021/06/23 04:10:07;;;;;;;18.35;9.15;;;16.10;99.90;;;;;;5040141;28;20391;-76
2021/06/23 04:12:33;;;;;;;28.50;19.35;;;15.90;99.90;;;;;;5048260;28;20029;-75
2021/06/23 04:14:58;;;;;;;21.95;10.00;;;15.90;99.90;;;;;;5048244;28;20132;-75
2021/06/23 04:17:24;;;;;;;17.83;10.13;;;15.80;99.90;;;;;;5033770;28;20573;-75
2021/06/23 04:19:49;;;;;;;19.58;9.73;;;15.90;99.90;;;;;;5034665;28;20484;-75
2021/06/23 04:22:15;;;;;;;21.10;10.40;;;15.80;99.90;;;;;;5048266;28;20414;-75
2021/06/23 04:24:41;;;;;;;304.40;278.80;;;15.80;99.90;;;;;;5046444;28;20119;-74
2021/06/23 04:27:07;;;;;;;1999.90;999.90;;;16.00;99.90;;;;;;5039709;28;20104;-74
2021/06/23 04:29:32;;;;;;;1999.90;999.90;;;16.10;99.90;;;;;;5039343;28;20444;-74
2021/06/23 04:31:58;;;;;;;1999.90;999.90;;;16.10;99.90;;;;;;5046808;28;20495;-75
2021/06/23 04:34:23;;;;;;;1999.90;999.90;;;16.30;99.90;;;;;;5046575;28;20025;-74
2021/06/23 04:36:49;;;;;;;1999.90;999.90;;;16.50;99.90;;;;;;5041378;28;20071;-74
2021/06/23 04:39:15;;;;;;;23.35;11.38;;;16.60;99.90;;;;;;5040309;28;20048;-74
2021/06/23 04:41:40;;;;;;;22.25;12.18;;;16.50;99.90;;;;;;5048047;28;20025;-74
2021/06/23 04:44:06;;;;;;;24.75;13.35;;;16.30;99.90;;;;;;5047527;28;20018;-76
2021/06/23 04:46:33;;;;;;;27.58;12.00;;;15.90;99.90;;;;;;5040538;28;20029;-75
2021/06/23 04:49:03;;;;;;;25.88;13.80;;;15.80;99.90;;;;;;5042125;28;20037;-74
2021/06/23 04:51:28;;;;;;;20.52;12.15;;;15.90;99.90;;;;;;5047625;28;20034;-73
2021/06/23 04:53:54;;;;;;;33.63;13.18;;;16.00;99.90;;;;;;5046814;28;20447;-75
2021/06/23 04:56:20;;;;;;;1999.90;999.90;;;16.10;99.90;;;;;;5052942;28;20043;-75
2021/06/23 04:58:45;;;;;;;36.95;22.58;;;16.30;99.90;;;;;;5041435;28;20021;-74
2021/06/23 05:01:11;;;;;;;29.17;21.80;;;16.50;99.90;;;;;;5047341;28;20021;-75
2021/06/23 05:03:37;;;;;;;25.73;13.95;;;16.80;99.90;;;;;;5046253;28;20063;-73
2021/06/23 05:06:03;;;;;;;21.30;14.80;;;16.80;99.90;;;;;;5040219;28;20471;-73
2021/06/23 05:08:29;;;;;;;19.45;14.32;;;16.50;99.90;;;;;;5054299;28;20029;-73
2021/06/23 05:10:55;;;;;;;17.95;12.85;;;16.40;99.90;;;;;;5041725;28;20025;-73
2021/06/23 05:13:22;;;;;;;21.60;12.43;;;16.60;99.90;;;;;;5041933;28;20057;-73
2021/06/23 05:15:48;;;;;;;18.67;10.60;;;16.60;99.90;;;;;;5047267;28;20026;-73
2021/06/23 05:18:14;;;;;;;18.02;10.25;;;16.70;99.90;;;;;;5044427;28;20104;-73
2021/06/23 05:20:40;;;;;;;26.30;12.48;;;16.80;99.90;;;;;;5040072;28;20013;-73
2021/06/23 05:23:06;;;;;;;22.08;12.27;;;16.60;99.90;;;;;;5053762;28;20030;-71
2021/06/23 05:25:31;;;;;;;15.50;11.35;;;16.70;99.90;;;;;;5053289;28;20025;-70
2021/06/23 05:27:57;;;;;;;18.80;11.70;;;16.90;99.90;;;;;;5042007;28;20049;-74
2021/06/23 05:30:22;;;;;;;25.10;16.80;;;17.00;99.90;;;;;;5036896;28;20470;-75
2021/06/23 05:32:48;;;;;;;1999.90;999.90;;;17.10;99.90;;;;;;5041661;28;20053;-75
2021/06/23 05:35:14;;;;;;;1999.90;999.90;;;17.10;99.90;;;;;;5037161;28;20057;-75
2021/06/23 05:37:39;;;;;;;1999.90;999.90;;;17.00;99.90;;;;;;5053054;28;20505;-74
2021/06/23 05:40:06;;;;;;;1999.90;999.90;;;16.80;99.90;;;;;;5034521;28;20048;-74
2021/06/23 05:42:31;;;;;;;1999.90;999.90;;;16.60;99.90;;;;;;5045057;28;20028;-75
2021/06/23 05:44:57;;;;;;;42.05;18.83;;;16.60;99.90;;;;;;5052895;28;20033;-75
2021/06/23 05:47:23;;;;;;;1999.90;999.90;;;16.90;99.90;;;;;;5051871;28;20028;-74
2021/06/23 05:49:48;;;;;;;22.30;13.00;;;17.00;99.90;;;;;;5033542;28;20022;-75
2021/06/23 05:52:14;;;;;;;22.15;12.25;;;16.70;99.90;;;;;;5032684;28;20032;-74
2021/06/23 05:54:39;;;;;;;142.80;34.80;;;16.80;99.90;;;;;;5032861;28;20036;-73
2021/06/23 05:57:05;;;;;;;194.65;35.22;;;16.80;99.90;;;;;;5031292;28;20036;-74
2021/06/23 05:59:31;;;;;;;19.38;11.73;;;17.00;99.90;;;;;;5031856;28;20041;-74
2021/06/23 06:01:57;;;;;;;17.23;11.13;;;17.10;99.90;;;;;;5045525;28;20070;-73
2021/06/23 06:04:22;;;;;;;14.75;10.73;;;17.30;99.90;;;;;;5039899;28;20165;-74
2021/06/23 06:06:48;;;;;;;21.65;11.07;;;17.20;99.90;;;;;;5041650;28;20041;-72
2021/06/23 06:09:13;;;;;;;15.68;9.02;;;17.40;99.90;;;;;;5046426;28;20029;-73
2021/06/23 06:11:39;;;;;;;20.23;12.38;;;17.60;99.90;;;;;;5046554;28;20487;-73
2021/06/23 06:14:04;;;;;;;17.95;9.45;;;17.70;99.90;;;;;;5032955;28;20029;-74
2021/06/23 06:16:30;;;;;;;16.88;10.40;;;17.80;99.90;;;;;;5031805;28;20125;-73
2021/06/23 06:18:56;;;;;;;16.15;9.80;;;18.10;99.90;;;;;;5046775;28;20411;-74
2021/06/23 06:21:22;;;;;;;19.75;11.85;;;17.90;99.90;;;;;;5043591;28;20398;-74
2021/06/23 06:23:48;;;;;;;20.80;9.68;;;18.00;99.90;;;;;;5044377;28;20020;-72
2021/06/23 06:26:14;;;;;;;29.77;12.05;;;18.10;99.90;;;;;;5030661;28;20029;-73
2021/06/23 06:28:40;;;;;;;15.10;10.55;;;18.20;99.90;;;;;;5049100;28;20021;-73
2021/06/23 06:31:06;;;;;;;15.40;9.30;;;18.40;99.90;;;;;;5052618;28;20104;-73
2021/06/23 06:33:32;;;;;;;17.42;9.40;;;18.50;99.90;;;;;;5039403;28;20029;-73
2021/06/23 06:35:57;;;;;;;18.45;9.05;;;18.70;99.90;;;;;;5041326;28;20030;-73
2021/06/23 06:38:23;;;;;;;688.88;308.83;;;18.60;99.90;;;;;;5031522;28;20454;-73
2021/06/23 06:40:49;;;;;;;19.55;12.77;;;18.70;99.90;;;;;;5032196;28;20045;-73
2021/06/23 06:43:15;;;;;;;14.05;7.45;;;18.50;99.90;;;;;;5055771;28;20110;-73
2021/06/23 06:45:40;;;;;;;13.32;8.57;;;18.40;99.90;;;;;;5049129;28;20014;-73
2021/06/23 06:48:07;;;;;;;16.23;8.15;;;18.30;99.90;;;;;;5031223;28;20022;-73
2021/06/23 06:50:32;;;;;;;13.40;8.43;;;18.30;99.90;;;;;;5032268;28;20720;-73
2021/06/23 06:52:58;;;;;;;12.80;8.38;;;18.20;99.90;;;;;;5038394;28;20076;-74
2021/06/23 06:55:23;;;;;;;14.75;7.68;;;18.20;99.90;;;;;;5052010;28;20482;-73
2021/06/23 06:57:50;;;;;;;13.75;7.63;;;18.30;99.90;;;;;;5032406;28;20035;-73
2021/06/23 07:00:17;;;;;;;15.23;7.82;;;18.30;99.90;;;;;;5031641;28;20447;-73
2021/06/23 07:02:42;;;;;;;19.00;8.30;;;18.30;99.90;;;;;;5050033;28;20429;-73
2021/06/23 07:05:08;;;;;;;15.48;11.77;;;18.30;99.90;;;;;;5040499;28;20022;-73
2021/06/23 07:07:34;;;;;;;15.80;10.70;;;18.20;99.90;;;;;;5049988;28;20064;-73
2021/06/23 07:10:00;;;;;;;19.50;11.50;;;18.20;99.90;;;;;;5039905;28;20458;-73
2021/06/23 07:12:25;;;;;;;17.23;8.98;;;18.20;99.90;;;;;;5035124;28;20067;-73
2021/06/23 07:14:51;;;;;;;16.70;7.97;;;18.20;99.90;;;;;;5039086;28;20510;-73
2021/06/23 07:17:16;;;;;;;22.83;7.97;;;18.20;99.90;;;;;;5045211;28;20079;-73
2021/06/23 07:19:42;;;;;;;10.18;6.03;;;18.20;99.90;;;;;;5041317;28;20025;-73
2021/06/23 07:22:07;;;;;;;11.25;6.78;;;18.20;99.90;;;;;;5038008;28;20478;-73
2021/06/23 07:24:33;;;;;;;19.15;12.60;;;18.30;99.90;;;;;;5040116;28;20034;-73
2021/06/23 07:26:59;;;;;;;21.92;13.40;;;18.40;99.90;;;;;;5030042;28;20026;-73
2021/06/23 07:29:26;;;;;;;23.17;11.68;;;18.50;99.90;;;;;;5029646;28;20025;-73
2021/06/23 07:32:06;;;;;;;17.65;11.95;;;18.70;99.90;;;;;;5031076;28;20483;-73
2021/06/23 07:36:32;;;;;;;22.88;15.25;;;18.60;99.90;;;;;;5030053;28;20404;-73
2021/06/23 07:37:18;;;;;;;24.42;16.70;;;18.70;99.90;;;;;;5031279;28;20485;-73
2021/06/23 07:39:44;;;;;;;24.88;18.45;;;18.70;99.90;;;;;;5031154;28;20423;-73
2021/06/23 07:42:10;;;;;;;23.23;17.65;;;18.70;99.90;;;;;;5031546;28;20025;-73
2021/06/23 07:47:08;;;;;;;200.65;92.60;;;18.50;99.90;;;;;;5031606;28;20021;-73
2021/06/23 07:49:37;;;;;;;1999.90;999.90;;;18.50;99.90;;;;;;5029742;28;20484;-72
2021/06/23 08:10:49;;;;;;;16.55;9.95;;;18.60;99.90;;;;;;5031069;28;20079;-73
2021/06/23 08:13:16;;;;;;;21.17;12.90;;;18.70;99.90;;;;;;5031180;28;20025;-73
2021/06/23 08:15:46;;;;;;;21.95;13.30;;;18.80;99.90;;;;;;5029639;28;20176;-73
2021/06/23 08:18:15;;;;;;;19.75;12.35;;;18.80;99.90;;;;;;5031134;28;20065;-73
2021/06/23 08:20:41;;;;;;;22.20;13.95;;;18.60;99.90;;;;;;5029535;28;20030;-73
2021/06/23 08:23:07;;;;;;;19.95;13.40;;;18.70;99.90;;;;;;5034589;28;20025;-72
2021/06/23 08:25:33;;;;;;;21.23;12.60;;;18.80;99.90;;;;;;5033155;28;20028;-73
2021/06/23 08:27:58;;;;;;;21.02;13.63;;;19.10;99.90;;;;;;5034515;28;20025;-73
2021/06/23 08:30:24;;;;;;;23.95;14.27;;;19.40;99.90;;;;;;5047884;28;20383;-74
2021/06/23 08:32:50;;;;;;;371.70;125.63;;;19.70;99.90;;;;;;5046682;28;20363;-74
2021/06/23 08:35:16;;;;;;;27.20;20.48;;;19.70;99.90;;;;;;5048701;28;20029;-74
2021/06/23 08:37:43;;;;;;;29.23;22.35;;;19.90;99.90;;;;;;5032602;28;20029;-73
2021/06/23 08:40:11;;;;;;;16.85;9.15;;;19.80;99.90;;;;;;5044867;28;20096;-73
2021/06/23 08:42:37;;;;;;;14.93;7.28;;;19.90;99.90;;;;;;5046208;28;20016;-73
2021/06/23 08:45:05;;;;;;;15.25;9.55;;;20.40;99.90;;;;;;5045848;28;20432;-74
2021/06/23 08:47:31;;;;;;;14.23;6.72;;;20.40;99.90;;;;;;5047827;28;20418;-73
2021/06/23 08:49:58;;;;;;;16.95;7.25;;;20.50;99.90;;;;;;5046916;28;20036;-73
2021/06/23 08:52:23;;;;;;;14.13;7.68;;;20.40;99.90;;;;;;5035485;28;20029;-73
2021/06/23 08:54:54;;;;;;;17.00;10.68;;;20.40;99.90;;;;;;5045577;28;20029;-73
2021/06/23 08:57:21;;;;;;;21.58;10.68;;;20.10;99.90;;;;;;5047317;28;20029;-73
2021/06/23 08:59:46;;;;;;;18.70;10.25;;;19.80;99.90;;;;;;5045975;28;20025;-73
2021/06/23 09:02:13;;;;;;;22.63;11.60;;;19.60;99.90;;;;;;5032612;28;20483;-73
2021/06/23 09:05:15;;;;;;;21.80;12.52;;;19.60;99.90;;;;;;5041528;28;20036;-73
2021/06/23 09:07:42;;;;;;;23.35;11.45;;;19.70;99.90;;;;;;4986242;28;20030;-73
2021/06/23 09:10:23;;;;;;;27.80;14.65;;;19.80;99.90;;;;;;5022092;28;20038;-73
2021/06/23 09:13:11;;;;;;;20.02;13.27;;;19.40;99.90;;;;;;5033866;28;20059;-73
2021/06/23 09:15:56;;;;;;;22.55;11.48;;;19.50;99.90;;;;;;5040083;28;20119;-73
2021/06/23 09:18:26;;;;;;;19.50;12.18;;;19.70;99.90;;;;;;5055821;28;20056;-73
2021/06/23 09:20:58;;;;;;;18.77;11.20;;;19.80;99.90;;;;;;5061290;28;20021;-73
2021/06/23 09:23:48;;;;;;;22.27;12.57;;;19.50;99.90;;;;;;5064703;28;20027;-73
2021/06/23 09:26:19;;;;;;;17.15;11.32;;;19.90;99.90;;;;;;5047985;28;20036;-73
2021/06/23 09:29:03;;;;;;;27.13;13.95;;;20.10;99.90;;;;;;5053064;28;20025;-73
2021/06/23 09:31:50;;;;;;;22.52;12.10;;;20.30;99.90;;;;;;5062740;28;20124;-73
2021/06/23 09:34:26;;;;;;;18.38;12.00;;;20.20;99.90;;;;;;5048324;28;20239;-73
2021/06/23 09:36:52;;;;;;;19.67;10.50;;;20.20;99.90;;;;;;5050675;28;20026;-73
2021/06/23 09:39:26;;;;;;;27.00;17.40;;;20.20;99.90;;;;;;5053311;28;20033;-73
2021/06/23 09:41:52;;;;;;;26.00;14.30;;;20.30;99.90;;;;;;5044778;28;20028;-73
2021/06/23 09:44:19;;;;;;;31.88;15.00;;;20.60;99.90;;;;;;5059247;28;20099;-73
2021/06/23 09:46:46;;;;;;;23.05;12.18;;;20.80;99.90;;;;;;5060135;28;20027;-73
2021/06/23 09:49:16;;;;;;;22.85;12.45;;;20.70;99.90;;;;;;5052209;28;20021;-73
2021/06/23 09:51:50;;;;;;;21.65;12.02;;;20.80;99.90;;;;;;5059138;28;20020;-73
2021/06/23 09:54:19;;;;;;;16.08;11.05;;;20.70;99.90;;;;;;5048603;28;20031;-73
2021/06/23 09:56:48;;;;;;;19.92;11.73;;;20.60;99.90;;;;;;5043222;28;20096;-73
2021/06/23 09:59:35;;;;;;;19.45;10.35;;;20.00;99.90;;;;;;5048286;28;20383;-73
2021/06/23 10:02:02;;;;;;;78.47;22.27;;;20.20;99.90;;;;;;5038637;28;20514;-73
2021/06/23 10:04:33;;;;;;;25.05;16.15;;;20.30;99.90;;;;;;5046025;28;20025;-73
2021/06/23 10:06:59;;;;;;;22.23;10.35;;;20.50;99.90;;;;;;5045013;28;20033;-73
2021/06/23 10:09:27;;;;;;;19.35;10.60;;;20.80;99.90;;;;;;5043888;28;20502;-73
2021/06/23 10:12:08;;;;;;;14.52;9.48;;;21.00;99.90;;;;;;5046189;28;20067;-73
2021/06/23 10:14:40;;;;;;;17.45;10.10;;;21.20;99.90;;;;;;5032653;28;20079;-73
2021/06/23 10:17:06;;;;;;;19.45;11.98;;;21.30;99.90;;;;;;5049387;28;20032;-73
2021/06/23 10:19:32;;;;;;;15.52;10.93;;;21.30;99.90;;;;;;5041286;28;20484;-73
2021/06/23 10:22:05;;;;;;;20.48;12.27;;;21.40;99.90;;;;;;5057517;28;20104;-73
2021/06/23 10:24:33;;;;;;;14.60;9.43;;;21.30;99.90;;;;;;5065284;28;20027;-73
2021/06/23 10:27:02;;;;;;;18.70;9.65;;;21.00;99.90;;;;;;5055916;28;20037;-73
2021/06/23 10:29:30;;;;;;;16.92;10.85;;;20.80;99.90;;;;;;5055950;28;20114;-73
2021/06/23 10:31:56;;;;;;;17.25;9.52;;;20.70;99.90;;;;;;5047007;28;20028;-73
2021/06/23 10:34:23;;;;;;;21.95;10.82;;;20.70;99.90;;;;;;5063411;28;20394;-73
2021/06/23 10:36:50;;;;;;;24.25;12.52;;;20.80;99.90;;;;;;5049969;28;20032;-73
2021/06/23 10:39:17;;;;;;;20.33;9.77;;;20.60;99.90;;;;;;5063409;28;20032;-73
2021/06/23 10:41:48;;;;;;;54.83;14.57;;;20.70;99.90;;;;;;5053130;28;20020;-73
2021/06/23 10:44:21;;;;;;;20.30;11.85;;;21.00;99.90;;;;;;5068681;28;20020;-73
2021/06/23 10:46:51;;;;;;;16.00;9.77;;;21.40;99.90;;;;;;5051561;28;20017;-73
2021/06/23 10:49:50;;;;;;;17.42;11.50;;;21.50;99.90;;;;;;5061997;28;20027;-73
2021/06/23 10:52:22;;;;;;;15.05;9.73;;;22.00;99.90;;;;;;5054039;28;20028;-73
2021/06/23 10:54:55;;;;;;;20.73;9.88;;;22.80;99.90;;;;;;5052334;28;20023;-73
2021/06/23 10:57:25;;;;;;;19.52;9.52;;;22.50;99.90;;;;;;5056521;28;20660;-73
2021/06/23 10:59:53;;;;;;;18.20;11.65;;;21.60;99.90;;;;;;5052965;28;20036;-73
2021/06/23 11:02:25;;;;;;;15.70;11.65;;;21.60;99.90;;;;;;5058745;28;20364;-73
2021/06/23 11:04:57;;;;;;;14.13;9.93;;;21.40;99.90;;;;;;5062131;28;20443;-72
2021/06/23 11:07:41;;;;;;;15.88;10.50;;;21.70;99.90;;;;;;5062680;28;20414;-73
2021/06/23 11:10:13;;;;;;;15.15;10.95;;;22.00;99.90;;;;;;5050002;28;20475;-73
2021/06/23 11:12:53;;;;;;;18.58;13.20;;;22.30;99.90;;;;;;5062085;28;20486;-73
2021/06/23 11:15:33;;;;;;;14.50;9.13;;;22.10;99.90;;;;;;5044022;28;20041;-73
2021/06/23 11:18:17;;;;;;;15.50;9.13;;;22.50;99.90;;;;;;5053807;28;20494;-73
2021/06/23 11:20:44;;;;;;;14.18;9.40;;;23.60;99.90;;;;;;5055659;28;20036;-73
2021/06/23 11:23:48;;;;;;;14.38;8.75;;;22.90;99.90;;;;;;5057893;28;20027;-73
2021/06/23 11:26:22;;;;;;;1081.57;570.45;;;23.00;99.90;;;;;;5058253;28;20021;-73
2021/06/23 11:28:56;;;;;;;19.58;8.85;;;22.90;99.90;;;;;;5049472;28;20386;-72
2021/06/23 11:31:38;;;;;;;13.65;9.65;;;22.80;99.90;;;;;;5044138;28;20021;-73
2021/06/23 11:34:04;;;;;;;12.00;8.35;;;22.70;99.90;;;;;;5039843;28;20035;-73
2021/06/23 11:36:29;;;;;;;11.52;7.43;;;22.70;99.90;;;;;;5034195;28;20100;-73
2021/06/23 11:38:56;;;;;;;11.35;7.68;;;23.50;99.90;;;;;;5041748;28;20037;-73
2021/06/23 11:41:22;;;;;;;1999.90;999.90;;;23.60;99.90;;;;;;5050266;28;20472;-75
2021/06/23 11:43:48;;;;;;;49.50;45.63;;;23.10;99.90;;;;;;5048525;28;20025;-75
2021/06/23 11:46:14;;;;;;;553.92;515.15;;;22.40;99.90;;;;;;5045063;28;20472;-74
2021/06/23 11:48:41;;;;;;;1152.18;999.90;;;23.00;99.90;;;;;;5030160;28;20026;-74
2021/06/23 11:51:07;;;;;;;168.05;158.40;;;22.90;99.90;;;;;;5035235;28;20017;-73
2021/06/23 11:53:33;;;;;;;14.73;10.95;;;23.50;99.90;;;;;;5049863;28;20027;-74
2021/06/23 11:55:59;;;;;;;21.70;19.70;;;24.30;99.90;;;;;;5038817;28;20379;-73
2021/06/23 11:58:25;;;;;;;1523.00;999.90;;;24.20;99.90;;;;;;5045234;28;20515;-73
2021/06/23 12:00:50;;;;;;;930.90;884.60;;;23.20;99.90;;;;;;5048233;28;20178;-75
2021/06/23 12:03:17;;;;;;;14.10;11.25;;;23.90;99.90;;;;;;5045093;28;20595;-73
2021/06/23 12:05:44;;;;;;;14.30;12.77;;;24.10;99.90;;;;;;5036847;28;20372;-73
2021/06/23 12:08:09;;;;;;;21.92;15.02;;;24.30;99.90;;;;;;5044119;28;20497;-73
2021/06/23 12:10:37;;;;;;;13.85;12.30;;;24.90;99.90;;;;;;5041230;28;20033;-73
2021/06/23 12:13:03;;;;;;;12.45;9.93;;;24.90;99.90;;;;;;5043463;28;20570;-73
2021/06/23 12:15:30;;;;;;;1226.78;999.90;;;24.30;99.90;;;;;;5050332;28;20115;-73
2021/06/23 12:18:00;;;;;;;316.33;302.80;;;23.80;99.90;;;;;;5053530;28;20119;-73
2021/06/23 12:20:29;;;;;;;13.38;11.60;;;23.10;99.90;;;;;;5037074;28;20061;-73
2021/06/23 12:22:56;;;;;;;972.20;919.70;;;24.00;99.90;;;;;;5045876;28;20021;-74
2021/06/23 12:25:26;;;;;;;894.60;826.33;;;24.40;99.90;;;;;;5036571;28;20018;-75
2021/06/23 12:27:53;;;;;;;12.00;10.25;;;24.10;99.90;;;;;;5045139;28;20032;-73
2021/06/23 12:30:19;;;;;;;11.88;9.60;;;25.30;99.90;;;;;;5040936;28;20033;-73
2021/06/23 12:32:45;;;;;;;16.00;9.93;;;25.50;99.90;;;;;;5053322;28;20025;-73
2021/06/23 12:35:11;;;;;;;17.95;11.65;;;25.10;99.90;;;;;;5035940;28;20080;-73
2021/06/23 12:37:38;;;;;;;16.75;6.10;;;25.10;99.90;;;;;;5045941;28;20040;-74
2021/06/23 12:40:04;;;;;;;12.75;11.45;;;25.60;99.90;;;;;;5039383;28;20116;-73
2021/06/23 12:42:30;;;;;;;12.77;11.48;;;26.10;99.90;;;;;;5041625;28;20513;-73
2021/06/23 12:44:56;;;;;;;80.35;18.98;;;25.90;99.90;;;;;;5053365;28;20025;-73
2021/06/23 12:47:22;;;;;;;1999.90;999.90;;;25.50;99.90;;;;;;5042093;28;20025;-73
2021/06/23 12:49:47;;;;;;;13.02;11.68;;;25.20;99.90;;;;;;5047442;28;20036;-73
2021/06/23 12:52:13;;;;;;;11.23;10.18;;;25.50;99.90;;;;;;5046509;28;20033;-73